createdAt,value
2022-11-20T00:00:39.509Z,99.90
2022-11-20T00:03:06.436Z,99.90
2022-11-20T00:05:33.817Z,99.90
2022-11-20T00:08:00.837Z,99.90
2022-11-20T00:10:27.910Z,99.90
2022-11-20T00:12:55.028Z,99.90
2022-11-20T00:15:21.968Z,99.90
2022-11-20T00:17:48.976Z,99.90
2022-11-20T00:20:15.993Z,99.90
2022-11-20T00:22:42.961Z,99.90
2022-11-20T00:25:10.274Z,99.90
2022-11-20T00:27:37.457Z,99.90
2022-11-20T00:30:04.891Z,99.90
2022-11-20T00:32:31.917Z,99.90
2022-11-20T00:34:58.900Z,99.90
2022-11-20T00:37:25.830Z,99.90
2022-11-20T00:39:52.862Z,99.90
2022-11-20T00:42:19.978Z,99.90
2022-11-20T00:44:47.015Z,99.90
2022-11-20T00:47:14.174Z,99.90
2022-11-20T00:49:41.114Z,99.90
2022-11-20T00:52:08.116Z,99.90
2022-11-20T00:54:35.106Z,99.90
2022-11-20T00:57:02.015Z,99.90
2022-11-20T00:59:29.048Z,99.90
2022-11-20T01:01:56.037Z,99.90
2022-11-20T01:04:23.048Z,99.90
2022-11-20T01:06:49.974Z,99.90
2022-11-20T01:09:17.068Z,99.90
2022-11-20T01:11:44.602Z,99.90
2022-11-20T01:14:12.891Z,99.90
2022-11-20T01:16:40.833Z,99.90
2022-11-20T01:19:08.714Z,99.90
2022-11-20T01:21:36.684Z,99.90
2022-11-20T01:24:03.969Z,99.90
2022-11-20T01:26:31.691Z,99.90
2022-11-20T01:28:58.591Z,99.90
2022-11-20T01:31:29.573Z,99.90
2022-11-20T01:33:57.285Z,99.90
2022-11-20T01:36:25.046Z,99.90
2022-11-20T01:38:52.638Z,99.90
2022-11-20T01:41:38.279Z,99.90
2022-11-20T01:44:05.325Z,99.90
2022-11-20T01:46:36.534Z,99.90
2022-11-20T01:49:04.301Z,99.90
2022-11-20T01:51:40.626Z,99.90
2022-11-20T01:54:08.358Z,99.90
2022-11-20T01:56:37.078Z,99.90
2022-11-20T01:59:04.680Z,99.90
2022-11-20T02:01:31.680Z,99.90
2022-11-20T02:03:58.914Z,99.90
2022-11-20T02:06:45.028Z,99.90
2022-11-20T02:09:12.737Z,99.90
2022-11-20T02:11:39.686Z,99.90
2022-11-20T02:14:06.761Z,99.90
2022-11-20T02:16:34.908Z,99.90
2022-11-20T02:19:02.573Z,99.90
2022-11-20T02:21:40.879Z,99.90
2022-11-20T02:24:13.894Z,99.90
2022-11-20T02:27:00.894Z,99.90
2022-11-20T02:29:28.651Z,99.90
2022-11-20T02:31:56.029Z,99.90
2022-11-20T02:34:23.180Z,99.90
2022-11-20T02:36:50.681Z,99.90
2022-11-20T02:39:20.643Z,99.90
2022-11-20T02:41:47.987Z,99.90
2022-11-20T02:44:14.994Z,99.90
2022-11-20T02:46:41.905Z,99.90
2022-11-20T02:49:08.935Z,99.90
2022-11-20T02:51:35.867Z,99.90
2022-11-20T02:54:02.937Z,99.90
2022-11-20T02:56:29.807Z,99.90
2022-11-20T02:58:56.806Z,99.90
2022-11-20T03:01:23.907Z,99.90
2022-11-20T03:03:50.932Z,99.90
2022-11-20T03:06:18.058Z,99.90
2022-11-20T03:08:45.004Z,99.90
2022-11-20T03:11:12.369Z,99.90
2022-11-20T03:13:39.391Z,99.90
2022-11-20T03:16:07.473Z,99.90
2022-11-20T03:18:34.445Z,99.90
2022-11-20T03:21:01.467Z,99.90
2022-11-20T03:23:29.707Z,99.90
2022-11-20T03:25:57.006Z,99.90
2022-11-20T03:28:23.999Z,99.90
2022-11-20T03:30:51.102Z,99.90
2022-11-20T03:33:18.125Z,99.90
2022-11-20T03:35:45.089Z,99.90
2022-11-20T03:38:12.046Z,99.90
2022-11-20T03:40:38.943Z,99.90
2022-11-20T03:43:05.880Z,99.90
2022-11-20T03:45:32.902Z,99.90
2022-11-20T03:47:59.986Z,99.90
2022-11-20T03:50:26.889Z,99.90
2022-11-20T03:52:54.407Z,99.90
2022-11-20T03:55:21.413Z,99.90
2022-11-20T03:57:48.423Z,99.90
2022-11-20T04:00:15.677Z,99.90
2022-11-20T04:02:42.644Z,99.90
2022-11-20T04:05:09.689Z,99.90
2022-11-20T04:07:36.774Z,99.90
2022-11-20T04:10:03.976Z,99.90
2022-11-20T04:12:32.890Z,99.90
2022-11-20T04:15:00.317Z,99.90
2022-11-20T04:17:27.393Z,99.90
2022-11-20T04:19:54.345Z,99.90
2022-11-20T04:22:21.258Z,99.90
2022-11-20T04:24:48.246Z,99.90
2022-11-20T04:27:15.258Z,99.90
2022-11-20T04:29:42.306Z,99.90
2022-11-20T04:32:09.276Z,99.90
2022-11-20T04:34:36.317Z,99.90
2022-11-20T04:37:03.401Z,99.90
2022-11-20T04:39:30.543Z,99.90
2022-11-20T04:42:16.319Z,99.90
2022-11-20T04:44:43.529Z,99.90
2022-11-20T04:47:10.677Z,99.90
2022-11-20T04:49:37.752Z,99.90
2022-11-20T04:52:04.764Z,99.90
2022-11-20T04:54:31.732Z,99.90
2022-11-20T04:56:58.585Z,99.90
2022-11-20T04:59:25.641Z,99.90
2022-11-20T05:01:52.606Z,99.90
2022-11-20T05:04:19.762Z,99.90
2022-11-20T05:06:46.746Z,99.90
2022-11-20T05:09:14.038Z,99.90
2022-11-20T05:11:41.062Z,99.90
2022-11-20T05:14:08.061Z,99.90
2022-11-20T05:16:35.274Z,99.90
2022-11-20T05:19:02.717Z,99.90
2022-11-20T05:21:31.541Z,99.90
2022-11-20T05:23:58.757Z,99.90
2022-11-20T05:26:25.818Z,99.90
2022-11-20T05:28:52.971Z,99.90
2022-11-20T05:31:27.104Z,99.90
2022-11-20T05:33:54.853Z,99.90
2022-11-20T05:36:21.986Z,99.90
2022-11-20T05:38:50.942Z,99.90
2022-11-20T05:41:19.430Z,99.90
2022-11-20T05:43:47.322Z,99.90
2022-11-20T05:46:14.947Z,99.90
2022-11-20T05:48:42.423Z,99.90
2022-11-20T05:51:10.026Z,99.90
2022-11-20T05:53:37.158Z,99.90
2022-11-20T05:56:04.148Z,99.90
2022-11-20T05:58:31.302Z,99.90
2022-11-20T06:01:07.599Z,99.90
2022-11-20T06:03:34.696Z,99.90
2022-11-20T06:06:01.899Z,99.90
2022-11-20T06:08:28.966Z,99.90
2022-11-20T06:10:56.136Z,99.90
2022-11-20T06:13:23.327Z,99.90
2022-11-20T06:15:52.732Z,99.90
2022-11-20T06:18:19.778Z,99.90
2022-11-20T06:20:46.978Z,99.90
2022-11-20T06:23:13.972Z,99.90
2022-11-20T06:25:41.396Z,99.90
2022-11-20T06:28:08.400Z,99.90
2022-11-20T06:30:35.504Z,99.90
2022-11-20T06:33:02.744Z,99.90
2022-11-20T06:35:29.806Z,99.90
2022-11-20T06:37:57.322Z,99.90
2022-11-20T06:40:24.280Z,99.90
2022-11-20T06:42:51.456Z,99.90
2022-11-20T06:45:18.510Z,99.90
2022-11-20T06:47:45.549Z,99.90
2022-11-20T06:50:12.691Z,99.90
2022-11-20T06:52:43.671Z,99.90
2022-11-20T06:55:10.785Z,99.90
2022-11-20T06:57:37.744Z,99.90
2022-11-20T07:00:04.959Z,99.90
2022-11-20T07:02:32.007Z,99.90
2022-11-20T07:04:59.164Z,99.90
2022-11-20T07:07:26.475Z,99.90
2022-11-20T07:09:53.567Z,99.90
2022-11-20T07:12:20.686Z,99.90
2022-11-20T07:14:47.760Z,99.90
2022-11-20T07:17:14.924Z,99.90
2022-11-20T07:19:41.960Z,99.90
2022-11-20T07:22:08.838Z,99.90
2022-11-20T07:24:35.983Z,99.90
2022-11-20T07:27:02.955Z,99.90
2022-11-20T07:29:30.565Z,99.90
2022-11-20T07:31:57.718Z,99.90
2022-11-20T07:34:24.686Z,99.90
2022-11-20T07:36:51.720Z,99.90
2022-11-20T07:39:18.918Z,99.90
2022-11-20T07:41:46.019Z,99.90
2022-11-20T07:44:12.957Z,99.90
2022-11-20T07:46:39.862Z,99.90
2022-11-20T07:49:06.854Z,99.90
2022-11-20T07:51:34.424Z,99.90
2022-11-20T07:54:01.389Z,99.90
2022-11-20T07:56:28.403Z,99.90
2022-11-20T07:58:55.496Z,99.90
2022-11-20T08:01:22.667Z,99.90
2022-11-20T08:03:49.717Z,99.90
2022-11-20T08:06:16.627Z,99.90
2022-11-20T08:08:43.743Z,99.90
2022-11-20T08:11:29.055Z,99.90
2022-11-20T08:14:14.323Z,99.90
2022-11-20T08:16:41.563Z,99.90
2022-11-20T08:19:08.777Z,99.90
2022-11-20T08:21:38.383Z,99.90
2022-11-20T08:24:06.083Z,99.90
2022-11-20T08:26:33.831Z,99.90
2022-11-20T08:29:00.809Z,99.90
2022-11-20T08:31:27.972Z,99.90
2022-11-20T08:33:55.100Z,99.90
2022-11-20T08:36:22.391Z,99.90
2022-11-20T08:38:49.976Z,99.90
2022-11-20T08:41:26.841Z,99.90
2022-11-20T08:43:57.711Z,99.90
2022-11-20T08:46:25.509Z,99.90
2022-11-20T08:48:52.790Z,99.90
2022-11-20T08:51:19.830Z,99.90
2022-11-20T08:53:47.336Z,99.90
2022-11-20T08:56:14.281Z,99.90
2022-11-20T08:59:10.022Z,99.90
2022-11-20T09:01:28.677Z,99.90
2022-11-20T09:03:58.994Z,99.90
2022-11-20T09:06:26.097Z,99.90
2022-11-20T09:08:53.747Z,99.90
2022-11-20T09:11:20.749Z,99.90
2022-11-20T09:13:47.841Z,99.90
2022-11-20T09:16:14.835Z,99.90
2022-11-20T09:18:41.876Z,99.90
2022-11-20T09:21:14.002Z,99.90
2022-11-20T09:23:41.108Z,99.90
2022-11-20T09:26:11.585Z,99.90
2022-11-20T09:28:38.625Z,99.90
2022-11-20T09:31:06.335Z,99.90
2022-11-20T09:33:33.412Z,99.90
2022-11-20T09:36:00.540Z,99.90
2022-11-20T09:38:27.489Z,99.20
2022-11-20T09:40:57.173Z,99.80
2022-11-20T09:43:44.408Z,99.30
2022-11-20T09:46:16.074Z,99.30
2022-11-20T09:49:15.309Z,98.30
2022-11-20T09:51:54.814Z,99.20
2022-11-20T09:54:22.267Z,98.10
2022-11-20T09:56:56.274Z,97.00
2022-11-20T09:59:26.190Z,97.80
2022-11-20T10:01:53.142Z,96.40
2022-11-20T10:04:20.911Z,98.10
2022-11-20T10:07:30.271Z,96.60
2022-11-20T10:10:10.679Z,96.40
2022-11-20T10:12:51.531Z,95.40
2022-11-20T10:15:18.504Z,95.30
2022-11-20T10:17:51.513Z,95.40
2022-11-20T10:20:33.712Z,95.70
2022-11-20T10:23:00.864Z,95.00
2022-11-20T10:25:48.089Z,92.20
2022-11-20T10:28:24.045Z,92.60
2022-11-20T10:30:54.019Z,88.40
2022-11-20T10:33:22.263Z,90.20
2022-11-20T10:35:54.102Z,88.70
2022-11-20T10:38:27.415Z,86.70
2022-11-20T10:41:18.727Z,86.10
2022-11-20T10:43:45.749Z,85.00
2022-11-20T10:46:16.698Z,82.20
2022-11-20T10:48:44.298Z,79.30
2022-11-20T10:51:13.981Z,75.60
2022-11-20T10:53:47.014Z,73.90
2022-11-20T10:56:17.508Z,72.30
2022-11-20T10:59:03.167Z,69.10
2022-11-20T11:01:30.142Z,68.70
2022-11-20T11:03:57.165Z,69.00
2022-11-20T11:06:50.759Z,67.80
2022-11-20T11:09:18.438Z,69.40
2022-11-20T11:11:45.420Z,74.00
2022-11-20T11:14:13.666Z,72.50
2022-11-20T11:16:53.470Z,74.20
2022-11-20T11:19:20.813Z,76.30
2022-11-20T11:21:52.346Z,75.40
2022-11-20T11:24:41.499Z,76.00
2022-11-20T11:27:16.948Z,77.90
2022-11-20T11:29:45.024Z,81.00
2022-11-20T11:32:15.996Z,81.60
2022-11-20T11:34:43.002Z,82.70
2022-11-20T11:37:19.636Z,84.00
2022-11-20T11:39:49.384Z,74.40
2022-11-20T11:42:22.308Z,68.60
2022-11-20T11:45:07.584Z,59.70
2022-11-20T11:47:37.256Z,57.30
2022-11-20T11:50:04.148Z,51.40
2022-11-20T11:52:31.139Z,50.40
2022-11-20T11:55:03.141Z,47.50
2022-11-20T11:57:50.573Z,48.50
2022-11-20T12:00:17.948Z,44.70
2022-11-20T12:02:49.405Z,41.80
2022-11-20T12:05:25.659Z,39.90
2022-11-20T12:07:52.669Z,39.90
2022-11-20T12:10:23.750Z,42.60
2022-11-20T12:12:55.578Z,38.80
2022-11-20T12:15:24.588Z,40.20
2022-11-20T12:17:51.641Z,38.30
2022-11-20T12:20:18.615Z,37.10
2022-11-20T12:22:57.871Z,37.10
2022-11-20T12:25:35.746Z,37.30
2022-11-20T12:28:02.670Z,37.60
2022-11-20T12:30:29.731Z,37.60
2022-11-20T12:32:56.684Z,37.50
2022-11-20T12:35:33.243Z,38.20
2022-11-20T12:38:06.225Z,37.10
2022-11-20T12:41:05.760Z,36.50
2022-11-20T12:43:53.077Z,37.30
2022-11-20T12:46:36.080Z,36.10
2022-11-20T12:49:15.005Z,35.10
2022-11-20T12:52:00.704Z,35.60
2022-11-20T12:54:30.723Z,35.00
2022-11-20T12:57:03.839Z,35.60
2022-11-20T12:59:56.854Z,35.80
2022-11-20T13:02:26.675Z,35.80
2022-11-20T13:04:53.608Z,37.80
2022-11-20T13:07:20.547Z,40.50
2022-11-20T13:09:48.322Z,44.40
2022-11-20T13:12:17.110Z,48.10
2022-11-20T13:14:46.944Z,50.80
2022-11-20T13:17:15.941Z,53.30
2022-11-20T13:19:42.863Z,55.80
2022-11-20T13:22:10.112Z,57.20
2022-11-20T13:24:37.073Z,58.40
2022-11-20T13:27:05.096Z,61.00
2022-11-20T13:29:32.387Z,61.70
2022-11-20T13:32:07.996Z,63.60
2022-11-20T13:34:35.915Z,65.80
2022-11-20T13:37:04.916Z,65.00
2022-11-20T13:39:32.919Z,67.80
2022-11-20T13:42:01.223Z,70.20
2022-11-20T13:44:31.140Z,71.60
2022-11-20T13:46:58.165Z,73.20
2022-11-20T13:49:25.157Z,74.70
2022-11-20T13:51:52.634Z,76.20
2022-11-20T13:54:19.822Z,77.60
2022-11-20T13:57:00.388Z,78.70
2022-11-20T13:59:42.640Z,81.00
2022-11-20T14:02:13.669Z,84.00
2022-11-20T14:04:43.326Z,86.10
2022-11-20T14:07:10.316Z,88.00
2022-11-20T14:09:37.485Z,90.00
2022-11-20T14:12:04.756Z,90.90
2022-11-20T14:14:32.288Z,91.60
2022-11-20T14:17:06.402Z,92.10
2022-11-20T14:19:33.477Z,93.30
2022-11-20T14:22:09.235Z,93.20
2022-11-20T14:24:36.255Z,93.20
2022-11-20T14:27:03.261Z,94.40
2022-11-20T14:29:31.096Z,94.00
2022-11-20T14:31:58.246Z,94.50
2022-11-20T14:34:29.356Z,95.10
2022-11-20T14:37:00.135Z,95.20
2022-11-20T14:39:31.679Z,95.40
2022-11-20T14:41:58.696Z,96.60
2022-11-20T14:44:29.233Z,97.00
2022-11-20T14:46:56.273Z,97.20
2022-11-20T14:49:23.163Z,96.90
2022-11-20T14:51:59.070Z,97.90
2022-11-20T14:54:27.173Z,97.70
2022-11-20T14:56:57.290Z,98.30
2022-11-20T14:59:25.439Z,98.10
2022-11-20T15:02:11.387Z,98.80
2022-11-20T15:04:47.285Z,98.80
2022-11-20T15:07:23.763Z,99.00
2022-11-20T15:10:00.453Z,99.90
2022-11-20T15:12:27.595Z,99.90
2022-11-20T15:14:54.536Z,99.90
2022-11-20T15:17:21.473Z,99.90
2022-11-20T15:19:48.659Z,99.90
2022-11-20T15:22:17.264Z,99.90
2022-11-20T15:24:44.208Z,99.90
2022-11-20T15:27:11.400Z,99.90
2022-11-20T15:29:38.349Z,99.90
2022-11-20T15:32:10.515Z,99.90
2022-11-20T15:34:40.227Z,99.90
2022-11-20T15:37:07.171Z,99.90
2022-11-20T15:39:34.282Z,99.90
2022-11-20T15:42:01.178Z,99.90
2022-11-20T15:44:28.432Z,99.90
2022-11-20T15:46:55.581Z,99.90
2022-11-20T15:49:24.693Z,99.90
2022-11-20T15:51:53.680Z,99.90
2022-11-20T15:54:22.338Z,99.90
2022-11-20T15:56:50.336Z,99.90
2022-11-20T15:59:17.363Z,99.90
2022-11-20T16:01:44.623Z,99.90
2022-11-20T16:04:12.567Z,99.90
2022-11-20T16:06:39.568Z,99.90
2022-11-20T16:09:06.786Z,99.90
2022-11-20T16:11:33.836Z,99.90
2022-11-20T16:14:19.229Z,99.90
2022-11-20T16:16:46.358Z,99.90
2022-11-20T16:19:13.620Z,99.90
2022-11-20T16:21:42.580Z,99.90
2022-11-20T16:24:13.986Z,99.90
2022-11-20T16:26:41.042Z,99.90
2022-11-20T16:29:08.161Z,99.90
2022-11-20T16:31:35.407Z,99.90
2022-11-20T16:34:07.167Z,99.90
2022-11-20T16:36:40.253Z,99.90
2022-11-20T16:39:07.203Z,99.90
2022-11-20T16:41:35.017Z,99.90
2022-11-20T16:44:03.125Z,99.90
2022-11-20T16:46:31.007Z,99.90
2022-11-20T16:49:04.637Z,99.90
2022-11-20T16:51:32.599Z,99.90
2022-11-20T16:54:01.386Z,99.90
2022-11-20T16:56:28.310Z,99.90
2022-11-20T16:58:56.040Z,99.90
2022-11-20T17:01:23.506Z,99.90
2022-11-20T17:04:03.726Z,99.90
2022-11-20T17:06:31.710Z,99.90
2022-11-20T17:08:58.950Z,99.90
2022-11-20T17:11:25.958Z,99.90
2022-11-20T17:13:53.012Z,99.90
2022-11-20T17:16:20.698Z,99.90
2022-11-20T17:18:47.702Z,99.90
2022-11-20T17:21:14.684Z,99.90
2022-11-20T17:23:42.128Z,99.90
2022-11-20T17:26:09.922Z,99.90
2022-11-20T17:28:37.341Z,99.90
2022-11-20T17:31:07.649Z,99.90
2022-11-20T17:33:35.183Z,99.90
2022-11-20T17:36:02.127Z,99.90
2022-11-20T17:38:29.186Z,99.90
2022-11-20T17:41:06.204Z,99.90
2022-11-20T17:43:35.911Z,99.90
2022-11-20T17:46:09.647Z,99.90
2022-11-20T17:48:37.420Z,99.90
2022-11-20T17:51:05.387Z,99.90
2022-11-20T17:53:36.004Z,99.90
2022-11-20T17:56:21.590Z,99.90
2022-11-20T17:58:48.723Z,99.90
2022-11-20T18:01:15.695Z,99.90
2022-11-20T18:03:42.709Z,99.90
2022-11-20T18:06:10.239Z,99.90
2022-11-20T18:08:37.232Z,99.90
2022-11-20T18:11:30.625Z,99.90
2022-11-20T18:14:16.838Z,99.90
2022-11-20T18:16:47.636Z,99.90
2022-11-20T18:19:15.566Z,99.90
2022-11-20T18:21:42.615Z,99.90
2022-11-20T18:24:09.684Z,99.90
2022-11-20T18:26:40.010Z,99.90
2022-11-20T18:29:09.878Z,99.90
2022-11-20T18:31:36.919Z,99.90
2022-11-20T18:34:04.245Z,99.90
2022-11-20T18:36:31.275Z,99.90
2022-11-20T18:38:58.752Z,99.90
2022-11-20T18:41:48.462Z,99.90
2022-11-20T18:44:44.427Z,99.90
2022-11-20T18:47:14.952Z,99.90
2022-11-20T18:49:42.743Z,99.90
2022-11-20T18:52:09.802Z,99.90
2022-11-20T18:54:37.130Z,99.90
2022-11-20T18:57:04.844Z,99.90
2022-11-20T18:59:32.306Z,99.90
2022-11-20T19:01:59.408Z,99.90
2022-11-20T19:04:27.067Z,99.90
2022-11-20T19:06:56.381Z,99.90
2022-11-20T19:09:24.194Z,99.90
2022-11-20T19:11:51.613Z,99.90
2022-11-20T19:14:18.706Z,99.90
2022-11-20T19:16:45.833Z,99.90
2022-11-20T19:19:12.928Z,99.90
2022-11-20T19:21:41.052Z,99.90
2022-11-20T19:24:08.079Z,99.90
2022-11-20T19:26:36.077Z,99.90
2022-11-20T19:29:05.952Z,99.90
2022-11-20T19:31:33.114Z,99.90
2022-11-20T19:34:00.797Z,99.90
2022-11-20T19:36:28.806Z,99.90
2022-11-20T19:38:55.833Z,99.90
2022-11-20T19:41:31.453Z,99.90
2022-11-20T19:43:59.391Z,99.90
2022-11-20T19:46:26.560Z,99.90
2022-11-20T19:48:53.794Z,99.90
2022-11-20T19:51:21.560Z,99.90
2022-11-20T19:53:48.590Z,99.90
2022-11-20T19:56:15.756Z,99.90
2022-11-20T19:58:42.933Z,99.90
2022-11-20T20:01:10.798Z,99.90
2022-11-20T20:03:37.941Z,99.90
2022-11-20T20:06:05.605Z,99.90
2022-11-20T20:08:32.748Z,99.90
2022-11-20T20:10:59.909Z,99.90
2022-11-20T20:13:27.100Z,99.90
2022-11-20T20:15:54.291Z,99.90
2022-11-20T20:18:21.161Z,99.90
2022-11-20T20:20:48.221Z,99.90
2022-11-20T20:23:15.335Z,99.90
2022-11-20T20:25:42.362Z,99.90
2022-11-20T20:28:09.445Z,99.90
2022-11-20T20:30:36.811Z,99.90
2022-11-20T20:33:03.894Z,99.90
2022-11-20T20:35:30.776Z,99.90
2022-11-20T20:37:57.724Z,99.90
2022-11-20T20:40:24.741Z,99.90
2022-11-20T20:42:51.818Z,99.90
2022-11-20T20:45:18.722Z,99.90
2022-11-20T20:47:45.824Z,99.90
2022-11-20T20:50:13.276Z,99.90
2022-11-20T20:52:40.537Z,99.90
2022-11-20T20:55:07.673Z,99.90
2022-11-20T20:57:34.823Z,99.90
2022-11-20T21:00:01.779Z,99.90
2022-11-20T21:02:28.776Z,99.90
2022-11-20T21:04:55.799Z,99.90
2022-11-20T21:07:22.802Z,99.90
2022-11-20T21:09:49.801Z,99.90
2022-11-20T21:12:16.760Z,99.90
2022-11-20T21:14:44.060Z,99.90
2022-11-20T21:17:15.120Z,99.90
2022-11-20T21:19:42.563Z,99.90
2022-11-20T21:22:09.607Z,99.90
2022-11-20T21:24:36.687Z,99.90
2022-11-20T21:27:04.414Z,99.90
2022-11-20T21:29:31.428Z,99.90
2022-11-20T21:31:58.518Z,99.90
2022-11-20T21:34:26.099Z,99.90
2022-11-20T21:36:53.416Z,99.90
2022-11-20T21:39:21.957Z,99.90
2022-11-20T21:41:48.960Z,99.90
2022-11-20T21:44:31.331Z,99.90
2022-11-20T21:46:58.881Z,99.90
2022-11-20T21:49:26.159Z,99.90
2022-11-20T21:51:53.865Z,99.90
2022-11-20T21:54:20.983Z,99.90
2022-11-20T21:56:48.241Z,99.90
2022-11-20T21:59:15.239Z,99.90
2022-11-20T22:01:42.334Z,99.90
2022-11-20T22:04:12.590Z,99.90
2022-11-20T22:06:39.563Z,99.90
2022-11-20T22:09:06.470Z,99.90
2022-11-20T22:11:33.501Z,99.90
2022-11-20T22:14:19.148Z,99.90
2022-11-20T22:16:46.236Z,99.90
2022-11-20T22:19:15.562Z,99.90
2022-11-20T22:21:42.607Z,99.90
2022-11-20T22:24:12.294Z,99.90
2022-11-20T22:26:40.635Z,99.90
2022-11-20T22:29:08.025Z,99.90
2022-11-20T22:31:34.983Z,99.90
2022-11-20T22:34:02.338Z,99.90
2022-11-20T22:36:29.596Z,99.90
2022-11-20T22:38:56.792Z,99.90
2022-11-20T22:41:27.772Z,99.90
2022-11-20T22:43:55.651Z,99.90
2022-11-20T22:46:22.692Z,99.90
2022-11-20T22:48:49.586Z,99.90
2022-11-20T22:51:17.095Z,99.90
2022-11-20T22:53:44.139Z,99.90
2022-11-20T22:56:14.232Z,99.90
2022-11-20T22:58:42.307Z,99.90
2022-11-20T23:01:10.099Z,99.90
2022-11-20T23:03:37.274Z,99.90
2022-11-20T23:06:04.839Z,99.90
2022-11-20T23:08:32.081Z,99.90
2022-11-20T23:10:59.927Z,99.90
2022-11-20T23:13:27.358Z,99.90
2022-11-20T23:15:54.571Z,99.90
2022-11-20T23:18:21.681Z,99.90
2022-11-20T23:20:48.716Z,99.90
2022-11-20T23:23:15.725Z,99.90
2022-11-20T23:25:42.761Z,99.90
2022-11-20T23:28:09.784Z,99.90
2022-11-20T23:30:36.935Z,99.90
2022-11-20T23:33:04.106Z,99.90
2022-11-20T23:35:31.069Z,99.90
2022-11-20T23:37:57.993Z,99.90
2022-11-20T23:40:25.094Z,99.90
2022-11-20T23:43:10.644Z,99.90
2022-11-20T23:45:38.265Z,99.90
2022-11-20T23:48:05.345Z,99.90
2022-11-20T23:50:32.353Z,99.90
2022-11-20T23:52:59.235Z,99.90
2022-11-20T23:55:26.257Z,99.90
2022-11-20T23:57:53.216Z,99.90
